createdAt,value
2023-10-18T00:01:59.264Z,10.26
2023-10-18T00:04:26.143Z,10.22
2023-10-18T00:06:56.084Z,10.22
2023-10-18T00:09:41.900Z,10.27
2023-10-18T00:12:08.674Z,10.20
2023-10-18T00:14:36.485Z,10.21
2023-10-18T00:17:03.262Z,10.22
2023-10-18T00:19:30.278Z,10.30
2023-10-18T00:21:57.136Z,10.28
2023-10-18T00:24:23.777Z,10.25
2023-10-18T00:26:51.083Z,10.26
2023-10-18T00:29:17.680Z,10.25
2023-10-18T00:31:44.394Z,10.25
2023-10-18T00:34:13.258Z,10.25
2023-10-18T00:36:41.340Z,10.26
2023-10-18T00:39:29.439Z,10.26
2023-10-18T00:41:59.937Z,10.31
2023-10-18T00:44:27.842Z,10.29
2023-10-18T00:46:55.310Z,10.37
2023-10-18T00:49:22.433Z,10.40
2023-10-18T00:51:49.523Z,10.39
2023-10-18T00:54:16.233Z,10.41
2023-10-18T00:56:47.626Z,10.43
2023-10-18T00:59:22.651Z,10.42
2023-10-18T01:02:11.953Z,10.47
2023-10-18T01:04:39.029Z,10.50
2023-10-18T01:07:18.028Z,10.41
2023-10-18T01:09:48.937Z,10.40
2023-10-18T01:12:17.118Z,10.45
2023-10-18T01:14:44.581Z,10.38
2023-10-18T01:17:11.459Z,10.40
2023-10-18T01:19:42.146Z,10.37
2023-10-18T01:22:09.133Z,10.41
2023-10-18T01:24:41.906Z,10.40
2023-10-18T01:27:09.397Z,10.39
2023-10-18T01:29:36.054Z,10.33
2023-10-18T01:32:03.574Z,10.37
2023-10-18T01:34:30.374Z,10.33
2023-10-18T01:37:00.524Z,10.36
2023-10-18T01:39:30.664Z,10.37
2023-10-18T01:41:59.873Z,10.29
2023-10-18T01:44:34.641Z,10.33
2023-10-18T01:47:08.342Z,10.36
2023-10-18T01:49:41.813Z,10.35
2023-10-18T01:52:09.691Z,10.35
2023-10-18T01:54:36.724Z,10.33
2023-10-18T01:57:03.497Z,10.30
2023-10-18T01:59:30.633Z,10.33
2023-10-18T02:02:00.404Z,10.32
2023-10-18T02:04:44.435Z,10.28
2023-10-18T02:07:19.312Z,10.28
2023-10-18T02:09:51.084Z,10.32
2023-10-18T02:12:20.516Z,10.28
2023-10-18T02:14:51.986Z,10.30
2023-10-18T02:17:23.107Z,10.26
2023-10-18T02:19:50.370Z,10.20
2023-10-18T02:22:20.356Z,10.22
2023-10-18T02:24:47.514Z,10.26
2023-10-18T02:27:17.460Z,10.25
2023-10-18T02:29:45.739Z,10.19
2023-10-18T02:32:34.083Z,10.18
2023-10-18T02:35:01.454Z,10.22
2023-10-18T02:37:28.089Z,10.20
2023-10-18T02:40:09.316Z,10.23
2023-10-18T02:42:36.590Z,10.20
2023-10-18T02:45:13.864Z,10.15
2023-10-18T02:47:41.770Z,10.19
2023-10-18T02:50:08.825Z,10.21
2023-10-18T02:52:36.713Z,10.30
2023-10-18T02:55:04.343Z,10.23
2023-10-18T02:57:33.580Z,10.18
2023-10-18T03:00:01.806Z,10.13
2023-10-18T03:02:28.529Z,10.10
2023-10-18T03:04:57.308Z,10.10
2023-10-18T03:07:24.073Z,10.06
2023-10-18T03:09:50.982Z,10.10
2023-10-18T03:12:19.376Z,10.06
2023-10-18T03:14:56.219Z,10.08
2023-10-18T03:17:24.636Z,10.07
2023-10-18T03:19:52.109Z,10.06
2023-10-18T03:22:22.206Z,10.09
2023-10-18T03:24:54.300Z,10.06
2023-10-18T03:27:21.485Z,10.04
2023-10-18T03:29:48.834Z,10.11
2023-10-18T03:32:20.370Z,10.11
2023-10-18T03:34:49.098Z,10.02
2023-10-18T03:37:22.483Z,10.07
2023-10-18T03:39:51.258Z,10.09
2023-10-18T03:42:33.458Z,10.15
2023-10-18T03:45:12.699Z,10.20
2023-10-18T03:47:39.760Z,10.20
2023-10-18T03:50:14.494Z,10.19
2023-10-18T03:52:41.989Z,10.25
2023-10-18T03:55:18.135Z,10.21
2023-10-18T03:57:47.310Z,10.27
2023-10-18T04:00:26.412Z,10.31
2023-10-18T04:03:02.383Z,10.30
2023-10-18T04:05:44.696Z,10.30
2023-10-18T04:08:15.649Z,10.27
2023-10-18T04:10:42.887Z,10.27
2023-10-18T04:13:16.182Z,10.30
2023-10-18T04:15:47.318Z,10.30
2023-10-18T04:18:14.877Z,10.33
2023-10-18T04:20:47.854Z,10.31
2023-10-18T04:23:27.222Z,10.25
2023-10-18T04:26:02.262Z,10.28
2023-10-18T04:28:31.070Z,10.36
2023-10-18T04:31:01.214Z,10.35
2023-10-18T04:33:50.714Z,10.31
2023-10-18T04:36:22.119Z,10.30
2023-10-18T04:38:50.799Z,10.29
2023-10-18T04:41:24.004Z,10.36
2023-10-18T04:44:06.372Z,10.32
2023-10-18T04:46:34.061Z,10.36
2023-10-18T04:49:01.690Z,10.33
2023-10-18T04:51:30.200Z,10.28
2023-10-18T04:53:58.657Z,10.35
2023-10-18T04:56:43.663Z,10.30
2023-10-18T04:59:19.461Z,10.32
2023-10-18T05:01:56.966Z,10.32
2023-10-18T05:04:34.274Z,10.32
2023-10-18T05:07:05.459Z,10.36
2023-10-18T05:09:43.395Z,10.32
2023-10-18T05:12:20.354Z,10.35
2023-10-18T05:14:53.751Z,10.34
2023-10-18T05:17:44.332Z,10.35
2023-10-18T05:20:23.425Z,10.37
2023-10-18T05:23:00.711Z,10.36
2023-10-18T05:25:36.835Z,10.37
2023-10-18T05:28:12.631Z,10.35
2023-10-18T05:30:58.799Z,10.33
2023-10-18T05:33:40.669Z,10.32
2023-10-18T05:36:16.628Z,10.33
2023-10-18T05:38:46.559Z,10.35
2023-10-18T05:41:29.770Z,10.37
2023-10-18T05:44:00.400Z,10.38
2023-10-18T05:46:33.004Z,10.36
2023-10-18T05:49:02.103Z,10.37
2023-10-18T05:51:38.553Z,10.38
2023-10-18T05:54:06.904Z,10.36
2023-10-18T05:56:34.023Z,10.38
2023-10-18T05:59:20.224Z,10.41
2023-10-18T06:01:47.587Z,10.40
2023-10-18T06:04:14.921Z,10.36
2023-10-18T06:06:41.681Z,10.41
2023-10-18T06:09:27.294Z,10.43
2023-10-18T06:11:55.894Z,10.38
2023-10-18T06:14:41.868Z,10.39
2023-10-18T06:17:13.606Z,10.39
2023-10-18T06:19:40.622Z,10.40
2023-10-18T06:22:17.357Z,10.38
2023-10-18T06:24:46.683Z,10.40
2023-10-18T06:27:17.199Z,10.43
2023-10-18T06:29:44.647Z,10.40
2023-10-18T06:32:14.548Z,10.45
2023-10-18T06:34:50.044Z,10.42
2023-10-18T06:37:32.854Z,10.40
2023-10-18T06:40:00.187Z,10.47
2023-10-18T06:42:29.734Z,10.44
2023-10-18T06:44:57.816Z,10.47
2023-10-18T06:47:33.180Z,10.44
2023-10-18T06:50:15.214Z,10.49
2023-10-18T06:52:53.915Z,10.44
2023-10-18T06:55:22.812Z,10.47
2023-10-18T06:57:53.437Z,10.50
2023-10-18T07:00:20.200Z,10.55
2023-10-18T07:02:46.786Z,10.51
2023-10-18T07:05:13.552Z,10.51
2023-10-18T07:07:40.243Z,10.52
2023-10-18T07:10:08.871Z,10.49
2023-10-18T07:12:52.584Z,10.52
2023-10-18T07:15:24.090Z,10.46
2023-10-18T07:17:53.589Z,10.50
2023-10-18T07:20:20.334Z,10.52
2023-10-18T07:22:46.991Z,10.56
2023-10-18T07:25:21.778Z,10.53
2023-10-18T07:27:49.083Z,10.59
2023-10-18T07:30:16.226Z,10.59
2023-10-18T07:32:49.265Z,10.66
2023-10-18T07:35:28.225Z,10.68
2023-10-18T07:37:55.826Z,10.69
2023-10-18T07:40:23.245Z,10.65
2023-10-18T07:42:53.481Z,10.63
2023-10-18T07:45:22.535Z,10.67
2023-10-18T07:47:54.879Z,10.67
2023-10-18T07:50:43.226Z,10.69
2023-10-18T07:53:14.046Z,10.63
2023-10-18T07:55:43.970Z,10.71
2023-10-18T07:58:23.651Z,10.80
2023-10-18T08:01:03.780Z,10.75
2023-10-18T08:03:32.184Z,10.76
2023-10-18T08:06:00.812Z,10.85
2023-10-18T08:08:27.529Z,10.90
2023-10-18T08:10:57.358Z,10.87
2023-10-18T08:13:27.560Z,10.86
2023-10-18T08:15:54.894Z,10.88
2023-10-18T08:18:40.335Z,10.93
2023-10-18T08:21:19.762Z,10.86
2023-10-18T08:23:47.238Z,10.83
2023-10-18T08:26:14.106Z,10.90
2023-10-18T08:28:42.662Z,10.87
2023-10-18T08:31:16.496Z,10.94
2023-10-18T08:33:43.832Z,10.93
2023-10-18T08:36:17.470Z,10.94
2023-10-18T08:38:45.932Z,10.99
2023-10-18T08:41:17.803Z,10.98
2023-10-18T08:44:31.274Z,11.05
2023-10-18T08:47:09.969Z,11.11
2023-10-18T08:49:45.531Z,11.05
2023-10-18T08:52:12.653Z,10.97
2023-10-18T08:54:43.079Z,11.09
2023-10-18T08:57:10.437Z,11.07
2023-10-18T08:59:53.095Z,11.07
2023-10-18T09:02:21.931Z,11.01
2023-10-18T09:04:57.214Z,11.08
2023-10-18T09:07:44.350Z,11.08
2023-10-18T09:10:15.190Z,11.07
2023-10-18T09:12:44.789Z,11.15
2023-10-18T09:15:33.358Z,11.06
2023-10-18T09:18:06.947Z,11.07
2023-10-18T09:20:39.013Z,11.06
2023-10-18T09:23:06.443Z,10.97
2023-10-18T09:25:49.135Z,11.04
2023-10-18T09:28:20.981Z,10.97
2023-10-18T09:30:47.681Z,11.02
2023-10-18T09:33:17.311Z,10.98
2023-10-18T09:35:49.522Z,11.09
2023-10-18T09:38:19.290Z,11.02
2023-10-18T09:40:46.296Z,11.15
2023-10-18T09:43:12.942Z,11.09
2023-10-18T09:45:39.936Z,11.18
2023-10-18T09:48:09.698Z,11.17
2023-10-18T09:50:40.333Z,11.24
2023-10-18T09:53:10.432Z,11.18
2023-10-18T09:55:42.444Z,11.28
2023-10-18T09:58:15.655Z,11.26
2023-10-18T10:00:43.792Z,11.29
2023-10-18T10:03:11.337Z,11.27
2023-10-18T10:05:42.660Z,11.41
2023-10-18T10:08:10.410Z,11.38
2023-10-18T10:10:46.643Z,11.50
2023-10-18T10:13:34.782Z,11.50
2023-10-18T10:16:04.549Z,11.44
2023-10-18T10:18:32.375Z,11.52
2023-10-18T10:21:02.351Z,11.49
2023-10-18T10:23:32.361Z,11.51
2023-10-18T10:26:33.254Z,11.52
2023-10-18T10:29:01.669Z,11.56
2023-10-18T10:31:47.713Z,11.47
2023-10-18T10:34:25.784Z,11.60
2023-10-18T10:36:53.475Z,11.58
2023-10-18T10:39:24.887Z,11.64
2023-10-18T10:41:52.278Z,11.67
2023-10-18T10:44:31.454Z,11.67
2023-10-18T10:47:17.550Z,11.65
2023-10-18T10:49:50.112Z,11.64
2023-10-18T10:52:20.980Z,11.60
2023-10-18T10:54:52.785Z,11.68
2023-10-18T10:57:20.633Z,11.77
2023-10-18T10:59:53.468Z,11.68
2023-10-18T11:02:34.437Z,11.75
2023-10-18T11:05:03.251Z,11.83
2023-10-18T11:07:30.613Z,11.87
2023-10-18T11:10:16.248Z,11.76
2023-10-18T11:12:43.150Z,11.78
2023-10-18T11:15:17.353Z,11.89
2023-10-18T11:17:49.875Z,11.88
2023-10-18T11:20:21.001Z,11.84
2023-10-18T11:22:49.201Z,11.75
2023-10-18T11:25:20.919Z,11.85
2023-10-18T11:27:48.600Z,11.75
2023-10-18T11:30:25.385Z,11.74
2023-10-18T11:32:55.540Z,11.83
2023-10-18T11:35:41.422Z,11.84
2023-10-18T11:38:11.840Z,11.70
2023-10-18T11:40:45.570Z,11.75
2023-10-18T11:43:13.011Z,11.77
2023-10-18T11:45:40.688Z,11.68
2023-10-18T11:48:07.886Z,11.73
2023-10-18T11:50:46.513Z,11.62
2023-10-18T11:53:14.020Z,11.81
2023-10-18T11:56:01.644Z,11.65
2023-10-18T11:58:31.778Z,11.59
2023-10-18T12:01:08.019Z,11.63
2023-10-18T12:03:34.925Z,11.60
2023-10-18T12:06:01.885Z,11.69
2023-10-18T12:08:31.743Z,11.67
2023-10-18T12:10:59.006Z,11.68
2023-10-18T12:13:26.254Z,11.63
2023-10-18T12:15:56.317Z,11.68
2023-10-18T12:18:24.556Z,11.67
2023-10-18T12:20:52.844Z,11.78
2023-10-18T12:23:22.664Z,11.59
2023-10-18T12:25:49.658Z,11.58
2023-10-18T12:28:20.356Z,11.47
2023-10-18T12:30:53.713Z,11.45
2023-10-18T12:33:25.246Z,11.54
2023-10-18T12:35:53.333Z,11.63
2023-10-18T12:38:32.021Z,11.74
2023-10-18T12:41:07.944Z,11.55
2023-10-18T12:43:39.413Z,11.56
2023-10-18T12:46:07.740Z,11.57
2023-10-18T12:48:37.150Z,11.64
2023-10-18T12:51:09.658Z,11.71
2023-10-18T12:56:21.005Z,11.89
2023-10-18T12:58:59.045Z,12.00
2023-10-18T13:01:32.844Z,12.03
2023-10-18T13:04:00.948Z,11.96
2023-10-18T13:06:42.647Z,12.15
2023-10-18T13:09:15.268Z,12.18
2023-10-18T13:11:45.881Z,12.16
2023-10-18T13:14:15.818Z,12.10
2023-10-18T13:16:43.911Z,12.06
2023-10-18T13:19:16.900Z,12.20
2023-10-18T13:21:44.640Z,12.10
2023-10-18T13:24:24.000Z,12.14
2023-10-18T13:26:57.197Z,12.00
2023-10-18T13:29:24.020Z,12.13
2023-10-18T13:31:52.124Z,12.23
2023-10-18T13:34:20.028Z,12.18
2023-10-18T13:36:48.821Z,12.27
2023-10-18T13:39:17.780Z,12.19
2023-10-18T13:41:48.177Z,12.13
2023-10-18T13:44:15.470Z,12.13
2023-10-18T13:46:55.362Z,12.14
2023-10-18T13:49:29.363Z,12.14
2023-10-18T13:51:56.419Z,12.16
2023-10-18T13:54:23.716Z,12.09
2023-10-18T13:56:50.440Z,12.17
2023-10-18T13:59:20.098Z,12.15
2023-10-18T14:01:50.757Z,12.15
2023-10-18T14:04:26.183Z,12.17
2023-10-18T14:06:55.647Z,12.05
2023-10-18T14:09:24.242Z,11.98
2023-10-18T14:11:52.670Z,12.00
2023-10-18T14:14:19.708Z,12.06
2023-10-18T14:16:47.367Z,12.10
2023-10-18T14:19:14.430Z,12.12
2023-10-18T14:21:43.653Z,11.99
2023-10-18T14:24:16.631Z,12.14
2023-10-18T14:26:44.947Z,12.05
2023-10-18T14:29:13.061Z,11.95
2023-10-18T14:31:40.622Z,11.97
2023-10-18T14:34:08.366Z,11.93
2023-10-18T14:36:35.818Z,12.09
2023-10-18T14:39:04.515Z,11.96
2023-10-18T14:41:33.080Z,11.99
2023-10-18T14:44:01.525Z,12.00
2023-10-18T14:46:31.357Z,11.95
2023-10-18T14:49:00.813Z,12.04
2023-10-18T14:51:28.661Z,11.99
2023-10-18T14:53:55.449Z,12.07
2023-10-18T14:56:24.728Z,11.92
2023-10-18T14:58:52.595Z,11.94
2023-10-18T15:01:19.439Z,11.96
2023-10-18T15:03:47.547Z,11.98
2023-10-18T15:06:21.133Z,11.92
2023-10-18T15:08:50.772Z,11.94
2023-10-18T15:11:20.216Z,11.92
2023-10-18T15:13:50.586Z,11.91
2023-10-18T15:16:18.138Z,11.86
2023-10-18T15:18:47.772Z,11.93
2023-10-18T15:21:16.200Z,11.92
2023-10-18T15:23:45.050Z,11.92
2023-10-18T15:26:12.067Z,11.86
2023-10-18T15:28:41.275Z,11.96
2023-10-18T15:31:11.907Z,11.94
2023-10-18T15:33:39.355Z,11.86
2023-10-18T15:36:20.031Z,11.98
2023-10-18T15:38:49.641Z,11.84
2023-10-18T15:41:21.107Z,11.87
2023-10-18T15:43:50.586Z,11.85
2023-10-18T15:46:24.370Z,11.80
2023-10-18T15:48:52.787Z,11.86
2023-10-18T15:51:19.777Z,11.90
2023-10-18T15:53:56.244Z,11.84
2023-10-18T15:56:25.977Z,11.79
2023-10-18T15:58:55.264Z,11.79
2023-10-18T16:01:22.541Z,11.82
2023-10-18T16:03:49.693Z,11.82
2023-10-18T16:06:17.259Z,11.85
2023-10-18T16:08:44.777Z,11.84
2023-10-18T16:11:11.801Z,11.78
2023-10-18T16:13:40.033Z,11.77
2023-10-18T16:16:10.447Z,11.85
2023-10-18T16:18:38.462Z,11.74
2023-10-18T16:21:07.832Z,11.80
2023-10-18T16:23:38.408Z,11.75
2023-10-18T16:26:24.586Z,11.68
2023-10-18T16:28:51.427Z,11.81
2023-10-18T16:31:18.890Z,11.72
2023-10-18T16:33:49.972Z,11.63
2023-10-18T16:36:17.759Z,11.73
2023-10-18T16:38:44.798Z,11.81
2023-10-18T16:41:14.514Z,11.73
2023-10-18T16:43:44.491Z,11.67
2023-10-18T16:46:14.458Z,11.60
2023-10-18T16:48:41.911Z,11.70
2023-10-18T16:51:09.623Z,11.70
2023-10-18T16:53:37.439Z,11.66
2023-10-18T16:56:09.643Z,11.65
2023-10-18T16:58:37.124Z,11.62
2023-10-18T17:01:09.542Z,11.73
2023-10-18T17:03:41.269Z,11.68
2023-10-18T17:06:09.858Z,11.70
2023-10-18T17:08:37.450Z,11.67
2023-10-18T17:11:05.070Z,11.68
2023-10-18T17:13:32.738Z,11.60
2023-10-18T17:15:59.475Z,11.65
2023-10-18T17:18:26.913Z,11.66
2023-10-18T17:21:07.029Z,11.68
2023-10-18T17:23:40.400Z,11.62
2023-10-18T17:26:09.722Z,11.70
2023-10-18T17:28:37.751Z,11.66
2023-10-18T17:31:05.134Z,11.69
2023-10-18T17:33:31.958Z,11.57
2023-10-18T17:35:58.680Z,11.72
2023-10-18T17:38:25.514Z,11.59
2023-10-18T17:40:52.329Z,11.76
2023-10-18T17:43:19.382Z,11.64
2023-10-18T17:45:47.364Z,11.60
2023-10-18T17:48:16.655Z,11.67
2023-10-18T17:50:43.699Z,11.76
2023-10-18T17:53:14.080Z,11.69
2023-10-18T17:55:43.204Z,11.75
2023-10-18T17:58:12.805Z,11.69
2023-10-18T18:00:45.458Z,11.70
2023-10-18T18:03:14.177Z,11.64
2023-10-18T18:05:41.419Z,11.73
2023-10-18T18:08:15.279Z,11.68
2023-10-18T18:10:48.093Z,11.72
2023-10-18T18:13:20.495Z,11.72
2023-10-18T18:15:50.209Z,11.59
2023-10-18T18:18:18.141Z,11.76
2023-10-18T18:20:45.917Z,11.64
2023-10-18T18:23:13.835Z,11.70
2023-10-18T18:25:40.542Z,11.73
2023-10-18T18:28:08.304Z,11.68
2023-10-18T18:30:35.008Z,11.70
2023-10-18T18:33:01.849Z,11.61
2023-10-18T18:35:28.956Z,11.70
2023-10-18T18:37:55.830Z,11.63
2023-10-18T18:40:22.717Z,11.64
2023-10-18T18:42:50.858Z,11.69
2023-10-18T18:45:20.510Z,11.63
2023-10-18T18:47:51.011Z,11.63
2023-10-18T18:50:18.184Z,11.76
2023-10-18T18:52:46.861Z,11.78
2023-10-18T18:55:15.712Z,11.68
2023-10-18T18:57:43.976Z,11.60
2023-10-18T19:00:16.737Z,11.58
2023-10-18T19:02:48.875Z,11.60
2023-10-18T19:05:16.041Z,11.68
2023-10-18T19:07:44.028Z,11.64
2023-10-18T19:10:11.730Z,11.58
2023-10-18T19:12:38.462Z,11.60
2023-10-18T19:15:08.409Z,11.61
2023-10-18T19:17:35.385Z,11.55
2023-10-18T19:20:03.473Z,11.56
2023-10-18T19:22:33.299Z,11.50
2023-10-18T19:25:00.005Z,11.59
2023-10-18T19:27:26.579Z,11.59
2023-10-18T19:29:53.214Z,11.53
2023-10-18T19:32:19.961Z,11.59
2023-10-18T19:34:46.630Z,11.63
2023-10-18T19:37:13.265Z,11.60
2023-10-18T19:39:42.321Z,11.56
2023-10-18T19:42:09.012Z,11.58
2023-10-18T19:44:35.670Z,11.59
2023-10-18T19:47:02.284Z,11.59
2023-10-18T19:49:29.001Z,11.58
2023-10-18T19:51:55.797Z,11.57
2023-10-18T19:54:22.614Z,11.50
2023-10-18T19:56:49.290Z,11.49
2023-10-18T19:59:16.897Z,11.48
2023-10-18T20:01:43.722Z,11.55
2023-10-18T20:04:10.639Z,11.55
2023-10-18T20:06:38.318Z,11.59
2023-10-18T20:09:06.648Z,11.58
2023-10-18T20:11:36.912Z,11.55
2023-10-18T20:14:10.088Z,11.58
2023-10-18T20:16:36.919Z,11.53
2023-10-18T20:19:06.083Z,11.60
2023-10-18T20:21:36.227Z,11.57
2023-10-18T20:24:03.136Z,11.56
2023-10-18T20:26:30.570Z,11.53
2023-10-18T20:28:57.239Z,11.48
2023-10-18T20:31:24.474Z,11.50
2023-10-18T20:33:51.330Z,11.51
2023-10-18T20:36:22.697Z,11.51
2023-10-18T20:38:52.263Z,11.53
2023-10-18T20:41:19.884Z,11.52
2023-10-18T20:43:51.094Z,11.56
2023-10-18T20:46:17.786Z,11.54
2023-10-18T20:48:48.250Z,11.58
2023-10-18T20:51:15.431Z,11.53
2023-10-18T20:53:42.277Z,11.56
2023-10-18T20:56:09.351Z,11.55
2023-10-18T20:58:36.449Z,11.45
2023-10-18T21:01:09.181Z,11.49
2023-10-18T21:03:36.114Z,11.44
2023-10-18T21:06:12.923Z,11.48
2023-10-18T21:08:42.960Z,11.47
2023-10-18T21:11:13.505Z,11.50
2023-10-18T21:13:40.897Z,11.51
2023-10-18T21:16:13.556Z,11.43
2023-10-18T21:18:43.098Z,11.47
2023-10-18T21:21:11.936Z,11.48
2023-10-18T21:23:39.905Z,11.47
2023-10-18T21:26:10.574Z,11.49
2023-10-18T21:28:37.360Z,11.45
2023-10-18T21:31:06.532Z,11.48
2023-10-18T21:33:33.773Z,11.49
2023-10-18T21:36:08.104Z,11.46
2023-10-18T21:38:35.787Z,11.47
2023-10-18T21:41:06.673Z,11.44
2023-10-18T21:43:34.446Z,11.39
2023-10-18T21:46:02.148Z,11.44
2023-10-18T21:48:28.984Z,11.44
2023-10-18T21:50:59.373Z,11.40
2023-10-18T21:53:31.399Z,11.44
2023-10-18T21:56:02.163Z,11.43
2023-10-18T21:58:40.971Z,11.44
2023-10-18T22:01:27.728Z,11.35
2023-10-18T22:03:58.738Z,11.28
2023-10-18T22:06:26.796Z,11.36
2023-10-18T22:08:53.602Z,11.36
2023-10-18T22:11:22.903Z,11.29
2023-10-18T22:13:50.199Z,11.40
2023-10-18T22:16:26.524Z,11.38
2023-10-18T22:18:56.196Z,11.37
2023-10-18T22:21:27.921Z,11.32
2023-10-18T22:23:58.792Z,11.38
2023-10-18T22:26:32.089Z,11.44
2023-10-18T22:29:02.228Z,11.29
2023-10-18T22:31:29.010Z,11.43
2023-10-18T22:33:56.189Z,11.35
2023-10-18T22:36:23.505Z,11.37
2023-10-18T22:38:53.536Z,11.36
2023-10-18T22:41:25.334Z,11.39
2023-10-18T22:43:52.042Z,11.47
2023-10-18T22:46:37.154Z,11.41
2023-10-18T22:49:10.265Z,11.37
2023-10-18T22:51:46.349Z,11.37
2023-10-18T22:54:15.516Z,11.43
2023-10-18T22:56:48.314Z,11.49
2023-10-18T22:59:20.819Z,11.39
2023-10-18T23:01:47.572Z,11.35
2023-10-18T23:04:16.270Z,11.39
2023-10-18T23:06:42.986Z,11.45
2023-10-18T23:09:12.542Z,11.46
2023-10-18T23:11:51.200Z,11.47
2023-10-18T23:14:24.032Z,11.41
2023-10-18T23:16:51.610Z,11.38
2023-10-18T23:19:27.541Z,11.36
2023-10-18T23:22:14.878Z,11.39
2023-10-18T23:24:44.333Z,11.24
2023-10-18T23:27:29.701Z,11.29
2023-10-18T23:29:59.755Z,11.26
2023-10-18T23:32:46.449Z,11.39
2023-10-18T23:35:28.337Z,11.38
2023-10-18T23:38:10.682Z,11.29
2023-10-18T23:40:51.298Z,11.41
2023-10-18T23:43:21.130Z,11.43
2023-10-18T23:46:20.035Z,11.44
2023-10-18T23:48:46.697Z,11.40
2023-10-18T23:51:23.678Z,11.39
2023-10-18T23:53:50.948Z,11.52
2023-10-18T23:56:17.545Z,11.38
2023-10-18T23:58:49.716Z,11.41
